Time;durP1;ratioP1;P1;durP2;ratioP2;P2;SDS_P1;SDS_P2;PMS_P1;PMS_P2;Temp;Humidity;BMP_temperature;BMP_pressure;BME280_temperature;BME280_humidity;BME280_pressure;Samples;Min_cycle;Max_cycle;Signal;HPM_P1;HPM_P2
2022/09/14 00:00:32;;;;;;;;;1.67;1.33;;;;;19.84;56.85;97664.41;4943956;28;102085;-92
2022/09/14 00:02:59;;;;;;;;;1.67;1.67;;;;;19.84;57.01;97664.41;4937740;28;102447;-93
2022/09/14 00:05:26;;;;;;;;;3.00;3.00;;;;;19.83;56.99;97655.38;4937323;28;105295;-88
2022/09/14 00:07:53;;;;;;;;;2.33;2.00;;;;;19.82;57.07;97653.72;4935550;28;104228;-92
2022/09/14 00:10:20;;;;;;;;;3.67;2.67;;;;;19.84;56.74;97650.69;4941423;28;103511;-92
2022/09/14 00:12:47;;;;;;;;;4.67;3.00;;;;;19.84;56.68;97654.25;4943373;28;103502;-92
2022/09/14 00:15:14;;;;;;;;;2.00;2.00;;;;;19.84;56.70;97651.53;4947015;28;103480;-92
2022/09/14 00:17:41;;;;;;;;;1.33;1.33;;;;;19.84;56.71;97651.53;4943032;28;102985;-92
2022/09/14 00:20:08;;;;;;;;;2.33;2.00;;;;;19.85;56.81;97646.84;4938198;28;103689;-92
2022/09/14 00:22:35;;;;;;;;;0.67;0.00;;;;;19.85;56.90;97646.84;4941566;28;103575;-92
2022/09/14 00:25:02;;;;;;;;;1.67;1.67;;;;;19.84;56.81;97647.97;4937981;28;102410;-92
2022/09/14 00:27:29;;;;;;;;;1.67;1.67;;;;;19.85;56.72;97641.38;4937983;28;104081;-92
2022/09/14 00:29:56;;;;;;;;;1.67;1.67;;;;;19.85;56.54;97635.88;4944011;28;109658;-91
2022/09/14 00:32:23;;;;;;;;;1.67;1.67;;;;;19.85;56.75;97636.72;4943037;28;102510;-92
2022/09/14 00:34:50;;;;;;;;;2.67;2.67;;;;;19.83;56.97;97633.41;4944527;28;102695;-92
2022/09/14 00:37:17;;;;;;;;;2.00;2.00;;;;;19.85;56.57;97638.63;4938028;28;104058;-92
2022/09/14 00:39:44;;;;;;;;;2.00;1.67;;;;;19.83;56.73;97632.59;4940767;28;102529;-92
2022/09/14 00:42:14;;;;;;;;;1.67;1.67;;;;;19.83;56.85;97638.06;4935826;28;102341;-92
2022/09/14 00:44:41;;;;;;;;;2.00;2.00;;;;;19.83;56.88;97627.09;4948475;28;102529;-92
2022/09/14 00:47:08;;;;;;;;;2.67;2.33;;;;;19.81;56.61;97630.13;4943171;28;104312;-91
2022/09/14 00:49:37;;;;;;;;;1.67;1.67;;;;;19.84;57.06;97628.75;4937765;28;102581;-93
2022/09/14 00:52:21;;;;;;;;;2.00;2.00;;;;;19.81;57.01;97627.38;4937911;28;102746;-93
2022/09/14 00:54:51;;;;;;;;;2.00;2.00;;;;;19.83;56.94;97633.41;4938102;28;103576;-93
2022/09/14 00:57:18;;;;;;;;;2.33;2.33;;;;;19.83;56.63;97630.66;4934628;28;104128;-93
2022/09/14 00:59:46;;;;;;;;;2.00;2.00;;;;;19.84;56.80;97628.75;4933140;28;102565;-92
2022/09/14 01:02:14;;;;;;;;;2.67;2.00;;;;;19.84;56.88;97618.59;4913007;28;103843;-92
2022/09/14 01:04:42;;;;;;;;;3.00;3.00;;;;;19.85;56.61;97622.16;4932010;28;104002;-92
2022/09/14 01:07:23;;;;;;;;;3.00;3.00;;;;;19.83;56.94;97622.44;4925557;28;104077;-92
2022/09/14 01:10:28;;;;;;;;;2.00;2.00;;;;;19.83;56.92;97610.66;4925871;28;103570;-92
2022/09/14 01:13:54;;;;;;;;;1.67;1.67;;;;;19.84;56.81;97615.03;4939782;28;103360;-93
2022/09/14 01:16:52;;;;;;;;;2.33;2.33;;;;;19.82;56.97;97618.06;4918692;28;102553;-92
2022/09/14 01:20:10;;;;;;;;;3.00;2.00;;;;;19.82;57.08;97606.25;4935053;28;109777;-93
2022/09/14 01:23:10;;;;;;;;;2.00;2.00;;;;;19.82;57.01;97617.22;4940228;28;103061;-92
2022/09/14 01:26:07;;;;;;;;;2.00;2.00;;;;;19.81;56.85;97605.44;4942728;28;102440;-92
2022/09/14 01:28:50;;;;;;;;;3.00;3.00;;;;;19.81;56.76;97610.91;4937904;28;102749;-93
2022/09/14 01:31:39;;;;;;;;;1.00;1.00;;;;;19.81;56.84;97604.63;4942329;28;104098;-93
2022/09/14 01:34:09;;;;;;;;;1.33;1.33;;;;;19.81;56.93;97608.16;4929044;28;103332;-92
2022/09/14 01:36:37;;;;;;;;;3.00;2.67;;;;;19.81;56.93;97602.69;4939577;28;104822;-92
2022/09/14 01:39:04;;;;;;;;;3.00;2.00;;;;;19.78;56.69;97602.44;4904759;28;102335;-92
2022/09/14 01:41:31;;;;;;;;;2.33;2.00;;;;;19.81;56.59;97604.63;4942837;28;103445;-92
2022/09/14 01:44:10;;;;;;;;;2.33;2.33;;;;;19.81;56.70;97596.41;4938731;28;102486;-92
2022/09/14 01:46:40;;;;;;;;;2.33;0.67;;;;;19.82;56.95;97596.09;4928356;28;102442;-92
2022/09/14 01:49:11;;;;;;;;;0.67;0.67;;;;;19.81;56.92;97594.47;4959898;28;102676;-92
2022/09/14 01:51:59;;;;;;;;;1.67;1.67;;;;;19.82;57.08;97587.88;4939572;28;104032;-92
2022/09/14 01:54:52;;;;;;;;;2.67;1.67;;;;;19.82;56.71;97598.03;4930271;28;102501;-92
2022/09/14 01:57:47;;;;;;;;;3.00;3.00;;;;;19.81;56.93;97591.72;4928143;28;103441;-93
2022/09/14 02:00:16;;;;;;;;;2.00;2.00;;;;;19.80;56.88;97594.75;4937471;28;102603;-93
2022/09/14 02:02:53;;;;;;;;;0.67;0.67;;;;;19.79;56.71;97588.44;4941106;28;104080;-92
2022/09/14 02:05:29;;;;;;;;;2.00;2.00;;;;;19.80;56.68;97586.53;4928620;28;103587;-93
2022/09/14 02:07:56;;;;;;;;;3.00;2.00;;;;;19.79;56.78;97588.44;4943077;28;102480;-92
2022/09/14 02:10:23;;;;;;;;;2.67;1.67;;;;;19.79;56.81;97582.16;4942355;28;104056;-92
2022/09/14 02:12:51;;;;;;;;;1.67;1.67;;;;;19.81;56.91;97588.19;4938697;28;103964;-93
2022/09/14 02:15:18;;;;;;;;;1.67;1.67;;;;;19.80;56.48;97583.78;4936246;28;102334;-93
2022/09/14 02:17:45;;;;;;;;;2.00;2.00;;;;;19.82;56.69;97584.31;4938154;28;102140;-92
2022/09/14 02:20:26;;;;;;;;;0.67;0.67;;;;;19.82;56.92;97582.38;4950241;28;102404;-93
2022/09/14 02:22:53;;;;;;;;;1.00;1.00;;;;;19.83;56.76;97580.47;4946554;28;104315;-92
2022/09/14 02:25:20;;;;;;;;;1.67;1.67;;;;;19.83;56.65;97574.97;4952739;28;103652;-92
2022/09/14 02:27:47;;;;;;;;;3.67;3.00;;;;;19.81;56.61;97575.25;4943042;28;102581;-92
2022/09/14 02:30:15;;;;;;;;;2.67;2.67;;;;;19.81;56.74;97564.28;4935129;28;102547;-92
2022/09/14 02:33:07;;;;;;;;;2.33;2.00;;;;;19.79;56.91;97557.47;4934485;28;104222;-93
2022/09/14 02:35:40;;;;;;;;;2.67;2.67;;;;;19.80;56.98;97556.34;4918131;28;102500;-93
2022/09/14 02:38:17;;;;;;;;;1.67;1.67;;;;;19.81;56.76;97564.28;4915678;28;102563;-93
2022/09/14 02:41:33;;;;;;;;;1.67;1.67;;;;;19.80;56.75;97559.91;4949077;28;102602;-93
2022/09/14 02:44:06;;;;;;;;;2.00;2.00;;;;;19.81;56.91;97558.00;4922627;28;108741;-92
2022/09/14 02:46:47;;;;;;;;;1.67;1.33;;;;;19.79;56.67;97558.28;4955679;28;102210;-92
2022/09/14 02:49:28;;;;;;;;;3.00;3.00;;;;;19.80;56.86;97548.13;4966789;28;102809;-93
2022/09/14 02:52:24;;;;;;;;;3.00;2.00;;;;;19.80;56.75;97546.22;4960267;28;104180;-92
2022/09/14 02:54:53;;;;;;;;;2.00;2.00;;;;;19.80;56.59;97540.72;4955652;28;108630;-93
2022/09/14 02:57:20;;;;;;;;;2.00;2.00;;;;;19.79;56.77;97541.81;4965797;28;103726;-93
2022/09/14 02:59:47;;;;;;;;;2.00;1.33;;;;;19.79;56.47;97533.59;4960199;28;102417;-93
2022/09/14 03:02:14;;;;;;;;;2.00;1.00;;;;;19.80;56.82;97539.91;4962212;28;102237;-92
2022/09/14 03:04:41;;;;;;;;;2.67;2.00;;;;;19.82;56.85;97540.41;4966522;28;104364;-92
2022/09/14 03:07:08;;;;;;;;;0.00;0.00;;;;;19.81;56.84;97541.53;4960253;28;102495;-92
2022/09/14 03:09:35;;;;;;;;;2.00;2.00;;;;;19.79;56.77;97535.50;4965495;28;102407;-93
2022/09/14 03:12:02;;;;;;;;;1.67;1.67;;;;;19.80;56.98;97534.41;4964484;28;102250;-93
2022/09/14 03:14:29;;;;;;;;;2.33;2.33;;;;;19.79;56.76;97533.59;4952897;28;104297;-93
2022/09/14 03:16:56;;;;;;;;;1.67;1.67;;;;;19.80;56.63;97539.91;4960464;28;102473;-92
2022/09/14 03:19:23;;;;;;;;;2.33;1.67;;;;;19.80;56.82;97535.22;4951250;28;102277;-92
2022/09/14 03:21:50;;;;;;;;;2.67;2.67;;;;;19.79;56.66;97532.75;4968645;28;102288;-93
2022/09/14 03:24:17;;;;;;;;;1.67;1.67;;;;;19.78;56.89;97531.13;4959397;28;104044;-92
2022/09/14 03:26:46;;;;;;;;;1.67;1.67;;;;;19.79;56.60;97538.25;4962766;28;102247;-92
2022/09/14 03:29:13;;;;;;;;;1.33;1.33;;;;;19.80;56.55;97537.16;4961434;28;102145;-93
2022/09/14 03:31:40;;;;;;;;;2.00;2.00;;;;;19.80;56.49;97531.66;4969055;28;102444;-92
2022/09/14 03:34:08;;;;;;;;;3.00;3.00;;;;;19.81;56.67;97538.81;4955100;28;104236;-92
2022/09/14 03:36:35;;;;;;;;;3.00;2.33;;;;;19.80;56.42;97534.41;4940268;28;102120;-92
2022/09/14 03:39:02;;;;;;;;;2.00;1.00;;;;;19.80;56.77;97542.66;4956006;28;102156;-92
2022/09/14 03:41:29;;;;;;;;;2.00;1.00;;;;;19.81;56.43;97536.06;4966097;28;102181;-92
2022/09/14 03:43:56;;;;;;;;;2.00;1.67;;;;;19.80;56.84;97539.91;4964083;28;104055;-92
2022/09/14 03:46:23;;;;;;;;;2.00;2.00;;;;;19.80;56.75;97550.88;4957630;28;102325;-93
2022/09/14 03:48:51;;;;;;;;;1.67;1.67;;;;;19.79;56.63;97541.00;4967722;28;105811;-92
2022/09/14 03:51:18;;;;;;;;;2.00;1.00;;;;;19.81;56.38;97541.53;4957932;28;102293;-92
2022/09/14 03:53:45;;;;;;;;;0.67;0.67;;;;;19.80;56.87;97543.47;4959283;28;104178;-92
2022/09/14 03:56:17;;;;;;;;;1.67;1.00;;;;;19.81;56.70;97547.03;4961725;28;102329;-93
2022/09/14 03:58:44;;;;;;;;;1.00;1.00;;;;;19.80;56.49;97545.38;4963345;28;102530;-92
2022/09/14 04:01:13;;;;;;;;;1.33;1.33;;;;;19.79;56.69;97541.00;4954873;28;102570;-93
2022/09/14 04:03:40;;;;;;;;;1.00;1.00;;;;;19.78;56.48;97545.66;4973365;28;104140;-92
2022/09/14 04:06:08;;;;;;;;;1.33;1.33;;;;;19.79;56.43;97543.75;4972303;28;102353;-92
2022/09/14 04:08:36;;;;;;;;;3.67;2.67;;;;;19.80;56.45;97539.91;4967555;28;102181;-92
2022/09/14 04:11:11;;;;;;;;;0.67;0.67;;;;;19.80;56.63;97537.97;4957515;28;102511;-92
2022/09/14 04:13:38;;;;;;;;;2.33;2.00;;;;;19.78;56.46;97540.16;4965477;28;109034;-92
2022/09/14 04:16:05;;;;;;;;;2.33;2.00;;;;;19.78;56.40;97529.19;4962206;28;101996;-92
2022/09/14 04:18:32;;;;;;;;;3.00;3.00;;;;;19.78;56.30;97531.13;4971363;28;102386;-92
2022/09/14 04:21:01;;;;;;;;;2.00;2.00;;;;;19.79;56.59;97533.59;4968921;28;102584;-93
2022/09/14 04:23:33;;;;;;;;;1.67;1.67;;;;;19.80;56.74;97529.75;4967318;28;109124;-93
2022/09/14 04:26:21;;;;;;;;;3.00;2.00;;;;;19.80;56.50;97523.44;4954763;28;102520;-93
2022/09/14 04:28:48;;;;;;;;;2.67;2.67;;;;;19.78;56.64;97537.44;4969418;28;102359;-91
2022/09/14 04:31:15;;;;;;;;;1.67;1.00;;;;;19.77;56.52;97530.28;4961837;28;102395;-92
2022/09/14 04:33:43;;;;;;;;;3.00;3.00;;;;;19.79;56.78;97538.25;4955321;28;104311;-92
2022/09/14 04:36:12;;;;;;;;;2.67;2.67;;;;;19.76;56.57;97536.09;4958737;28;102212;-93
2022/09/14 04:38:39;;;;;;;;;2.33;2.33;;;;;19.78;56.78;97536.59;4965706;28;102439;-91
2022/09/14 04:41:07;;;;;;;;;2.67;2.67;;;;;19.77;56.87;97535.78;4963461;28;102582;-92
2022/09/14 04:43:34;;;;;;;;;2.67;2.67;;;;;19.77;56.38;97527.56;4964160;28;108992;-91
2022/09/14 04:46:06;;;;;;;;;3.00;3.00;;;;;19.76;56.66;97534.16;4972107;28;102348;-92
2022/09/14 04:48:34;;;;;;;;;5.00;5.00;;;;;19.75;57.08;97538.00;4957913;28;102372;-92
2022/09/14 04:51:12;;;;;;;;;5.00;4.00;;;;;19.75;56.75;97531.72;4963904;28;102324;-92
2022/09/14 04:53:39;;;;;;;;;4.00;3.00;;;;;19.75;56.83;97531.72;4964772;28;109549;-92
2022/09/14 04:56:07;;;;;;;;;4.00;3.33;;;;;19.73;56.82;97526.50;4959267;28;104680;-89
2022/09/14 04:58:38;;;;;;;;;3.67;3.00;;;;;19.74;57.02;97524.56;4959332;28;102564;-92
2022/09/14 05:01:07;;;;;;;;;4.00;4.00;;;;;19.76;56.57;97527.88;4954011;28;102190;-92
2022/09/14 05:03:35;;;;;;;;;2.67;2.67;;;;;19.74;56.77;97524.56;4968472;28;109059;-92
2022/09/14 05:06:03;;;;;;;;;3.33;3.00;;;;;19.75;56.88;97531.72;4964257;28;101918;-91
2022/09/14 05:08:30;;;;;;;;;4.00;4.00;;;;;19.77;56.70;97529.50;4957859;28;102228;-91
2022/09/14 05:10:57;;;;;;;;;3.67;3.00;;;;;19.76;56.93;97527.88;4965505;28;102536;-92
2022/09/14 05:13:24;;;;;;;;;3.67;3.67;;;;;19.76;56.93;97534.16;4960929;28;104283;-92
2022/09/14 05:15:51;;;;;;;;;4.67;3.00;;;;;19.75;56.63;97529.78;4953502;28;102315;-92
2022/09/14 05:18:18;;;;;;;;;2.67;2.67;;;;;19.75;57.03;97534.44;4963329;28;102223;-91
2022/09/14 05:20:45;;;;;;;;;1.67;1.67;;;;;19.75;57.00;97542.69;4961636;28;102235;-92
2022/09/14 05:23:12;;;;;;;;;4.00;4.00;;;;;19.75;56.91;97534.44;4954130;28;105812;-92
2022/09/14 05:25:39;;;;;;;;;3.33;2.67;;;;;19.74;56.88;97535.53;4962165;28;102385;-92
2022/09/14 05:28:07;;;;;;;;;4.67;3.67;;;;;19.74;57.00;97539.13;4967462;28;102671;-92
2022/09/14 05:30:38;;;;;;;;;2.00;2.00;;;;;19.73;57.08;97533.91;4966439;28;102417;-92
2022/09/14 05:33:05;;;;;;;;;3.00;2.33;;;;;19.73;56.87;97534.72;4964309;28;108354;-91
2022/09/14 05:35:32;;;;;;;;;2.33;2.00;;;;;19.73;56.99;97533.91;4956051;28;102464;-93
2022/09/14 05:37:59;;;;;;;;;3.00;3.00;;;;;19.73;56.79;97533.91;4962690;28;102399;-92
2022/09/14 05:40:26;;;;;;;;;2.67;2.67;;;;;19.73;57.02;97533.91;4967030;28;102503;-92
2022/09/14 05:42:53;;;;;;;;;2.33;2.33;;;;;19.73;56.74;97536.63;4963959;28;104281;-91
2022/09/14 05:45:20;;;;;;;;;1.67;1.67;;;;;19.72;56.69;97544.06;4953723;28;102325;-92
2022/09/14 05:47:47;;;;;;;;;3.33;2.67;;;;;19.73;56.78;97534.72;4967492;28;102542;-91
2022/09/14 05:50:14;;;;;;;;;3.33;3.33;;;;;19.73;56.93;97537.47;4976317;28;102276;-92
2022/09/14 05:52:41;;;;;;;;;3.33;2.67;;;;;19.73;56.89;97539.38;4961757;28;104066;-92
2022/09/14 05:55:09;;;;;;;;;3.67;2.67;;;;;19.73;56.95;97540.22;4963012;28;102369;-92
2022/09/14 05:57:36;;;;;;;;;3.33;3.33;;;;;19.74;56.75;97541.03;4962666;28;102368;-92
2022/09/14 06:00:03;;;;;;;;;2.67;2.67;;;;;19.74;56.95;97541.03;4968948;28;102515;-92
2022/09/14 06:02:30;;;;;;;;;3.33;3.33;;;;;19.73;56.87;97533.91;4962667;28;104032;-92
2022/09/14 06:04:57;;;;;;;;;4.00;3.00;;;;;19.73;57.02;97544.88;4964570;28;102173;-92
2022/09/14 06:07:24;;;;;;;;;4.00;4.00;;;;;19.72;56.91;97532.28;4964483;28;102713;-91
2022/09/14 06:09:51;;;;;;;;;2.00;1.33;;;;;19.72;56.90;97540.50;4958592;28;102408;-92
2022/09/14 06:12:18;;;;;;;;;2.33;2.33;;;;;19.70;56.82;97529.81;4968337;28;104091;-93
2022/09/14 06:14:45;;;;;;;;;4.33;3.00;;;;;19.72;57.03;97540.50;4961583;28;102213;-92
2022/09/14 06:17:12;;;;;;;;;4.00;3.67;;;;;19.72;57.09;97537.78;4964616;28;102452;-92
2022/09/14 06:19:39;;;;;;;;;2.00;2.00;;;;;19.70;57.17;97537.22;4959662;28;102158;-91
2022/09/14 06:22:06;;;;;;;;;2.67;2.67;;;;;19.72;57.13;97548.75;4967457;28;104090;-92
2022/09/14 06:24:34;;;;;;;;;2.33;2.33;;;;;19.71;57.00;97541.59;4974959;28;102199;-91
2022/09/14 06:27:01;;;;;;;;;3.00;3.00;;;;;19.72;56.97;97554.22;4960906;28;102340;-91
2022/09/14 06:29:28;;;;;;;;;2.67;2.67;;;;;19.70;56.96;97553.69;4965298;28;102220;-92
2022/09/14 06:31:55;;;;;;;;;3.67;3.00;;;;;19.71;56.94;97555.31;4957533;28;104066;-92
2022/09/14 06:34:22;;;;;;;;;3.00;3.00;;;;;19.73;56.99;97556.66;4964154;28;102647;-92
2022/09/14 06:36:49;;;;;;;;;3.33;2.67;;;;;19.72;57.17;97555.06;4962185;28;102426;-92
2022/09/14 06:39:16;;;;;;;;;4.00;4.00;;;;;19.73;56.79;97566.81;4964882;28;102358;-91
2022/09/14 06:41:43;;;;;;;;;4.00;2.00;;;;;19.72;57.04;97556.97;4974090;28;104055;-92
2022/09/14 06:44:10;;;;;;;;;3.00;3.00;;;;;19.73;56.86;97562.16;4956207;28;102244;-93
2022/09/14 06:46:37;;;;;;;;;2.67;2.00;;;;;19.73;56.96;97569.56;4970842;28;102329;-92
2022/09/14 06:49:07;;;;;;;;;2.67;2.67;;;;;19.75;57.14;97567.38;4957559;28;102186;-92
2022/09/14 06:51:38;;;;;;;;;2.67;2.67;;;;;19.70;57.22;97556.41;4959498;28;108951;-92
2022/09/14 06:54:06;;;;;;;;;2.67;2.67;;;;;19.73;56.97;97561.31;4954997;28;101983;-92
2022/09/14 06:56:34;;;;;;;;;3.33;3.33;;;;;19.74;56.97;97557.50;4981103;28;104638;-92
2022/09/14 06:59:01;;;;;;;;;4.00;3.33;;;;;19.75;56.92;97559.13;4955965;28;102566;-92
2022/09/14 07:01:28;;;;;;;;;4.00;3.67;;;;;19.74;56.91;97552.00;4963356;28;104200;-92
2022/09/14 07:03:56;;;;;;;;;3.00;3.00;;;;;19.74;56.51;97557.50;4969035;28;102338;-91
2022/09/14 07:06:25;;;;;;;;;3.00;3.00;;;;;19.74;56.61;97560.22;4971561;28;102212;-92
2022/09/14 07:08:52;;;;;;;;;4.00;3.00;;;;;19.75;56.80;97564.63;4952506;28;102619;-92
2022/09/14 07:11:21;;;;;;;;;5.00;3.67;;;;;19.75;57.14;97559.97;4960043;28;104109;-92
2022/09/14 07:13:48;;;;;;;;;4.00;3.00;;;;;19.75;56.94;97559.13;4958153;28;102215;-91
2022/09/14 07:16:15;;;;;;;;;4.67;3.00;;;;;19.76;56.71;97555.28;4952831;28;102139;-92
2022/09/14 07:18:42;;;;;;;;;3.00;3.00;;;;;19.77;56.98;97560.47;4963787;28;102149;-92
2022/09/14 07:21:11;;;;;;;;;3.00;3.00;;;;;19.76;56.68;97556.13;4960463;28;104235;-91
2022/09/14 07:23:40;;;;;;;;;3.67;3.00;;;;;19.78;56.83;97558.56;4964713;28;102648;-90
2022/09/14 07:26:15;;;;;;;;;3.33;2.33;;;;;19.77;56.79;97552.25;4968894;28;102415;-92
2022/09/14 07:28:44;;;;;;;;;1.67;1.33;;;;;19.79;56.88;97551.97;4961343;28;102489;-91
2022/09/14 07:31:18;;;;;;;;;2.67;2.67;;;;;19.77;56.39;97541.28;4961543;28;104231;-91
2022/09/14 07:33:45;;;;;;;;;3.00;3.00;;;;;19.78;56.73;97547.59;4962450;28;102589;-92
2022/09/14 07:36:13;;;;;;;;;3.00;3.00;;;;;19.78;56.51;97548.41;4966004;28;102326;-92
2022/09/14 07:38:40;;;;;;;;;2.67;2.67;;;;;19.78;56.42;97547.59;4964902;28;102259;-91
2022/09/14 07:41:20;;;;;;;;;1.67;1.67;;;;;19.78;56.73;97548.41;4962018;28;104260;-92
2022/09/14 07:43:50;;;;;;;;;2.33;2.33;;;;;19.80;56.79;97553.63;4962360;28;102393;-91
2022/09/14 07:46:18;;;;;;;;;4.00;4.00;;;;;19.79;56.81;97554.72;4963757;28;102281;-92
2022/09/14 07:48:46;;;;;;;;;2.00;2.00;;;;;19.79;56.59;97555.53;4965343;28;102468;-91
2022/09/14 07:51:13;;;;;;;;;2.00;2.00;;;;;19.80;56.66;97551.69;4953662;28;105075;-91
2022/09/14 07:53:41;;;;;;;;;2.67;2.67;;;;;19.80;56.51;97550.88;4965756;28;102404;-91
2022/09/14 07:56:09;;;;;;;;;2.00;2.00;;;;;19.78;56.72;97548.41;4959107;28;102618;-91
2022/09/14 07:58:36;;;;;;;;;3.00;3.00;;;;;19.80;56.57;97546.22;4970597;28;102516;-91
2022/09/14 08:01:10;;;;;;;;;4.00;4.00;;;;;19.82;56.80;97543.16;4968110;28;108854;-92
2022/09/14 08:03:42;;;;;;;;;3.00;3.00;;;;;19.82;56.82;97546.72;4968927;28;102186;-90
2022/09/14 08:06:14;;;;;;;;;2.33;2.33;;;;;19.83;56.91;97544.81;4959127;28;102482;-90
2022/09/14 08:08:43;;;;;;;;;2.67;2.67;;;;;19.83;56.58;97550.28;4955620;28;102392;-91
2022/09/14 08:11:11;;;;;;;;;3.00;2.33;;;;;19.83;56.55;97542.06;4968126;28;104064;-91
2022/09/14 08:13:40;;;;;;;;;2.00;2.00;;;;;19.83;56.49;97544.81;4965773;28;102332;-92
2022/09/14 08:16:07;;;;;;;;;2.00;2.00;;;;;19.83;56.77;97542.88;4970205;28;102378;-91
2022/09/14 08:18:34;;;;;;;;;3.00;3.00;;;;;19.83;56.59;97542.06;4963557;28;102548;-91
2022/09/14 08:21:03;;;;;;;;;4.00;3.00;;;;;19.84;56.77;97546.44;4964134;28;104032;-92
2022/09/14 08:23:30;;;;;;;;;2.67;2.67;;;;;19.84;56.71;97544.53;4955916;28;104733;-92
2022/09/14 08:26:02;;;;;;;;;3.00;2.33;;;;;19.85;56.44;97550.84;4970557;28;102518;-91
2022/09/14 08:28:29;;;;;;;;;2.67;1.67;;;;;19.85;56.44;97548.91;4968071;28;102363;-92
2022/09/14 08:31:03;;;;;;;;;2.00;2.00;;;;;19.86;56.80;97555.19;4961055;28;104932;-92
2022/09/14 08:33:32;;;;;;;;;2.00;2.00;;;;;19.86;56.67;97552.44;4974693;28;102342;-92
2022/09/14 08:35:59;;;;;;;;;2.00;2.00;;;;;19.88;56.41;97558.47;4953989;28;102280;-92
2022/09/14 08:38:26;;;;;;;;;2.33;2.33;;;;;19.88;56.75;97558.47;4972473;28;102128;-92
2022/09/14 08:40:53;;;;;;;;;2.00;1.67;;;;;19.88;56.62;97558.47;4951910;28;104219;-92
2022/09/14 08:43:21;;;;;;;;;1.67;1.67;;;;;19.88;56.82;97558.47;4962173;28;103319;-91
2022/09/14 08:45:49;;;;;;;;;3.67;2.33;;;;;19.89;56.71;97554.63;4958744;28;102205;-91
2022/09/14 08:48:36;;;;;;;;;2.33;2.33;;;;;19.90;56.53;97548.84;4958177;28;102475;-91
2022/09/14 08:51:04;;;;;;;;;2.00;2.00;;;;;19.90;56.54;97550.81;4945831;28;104099;-92
2022/09/14 08:53:33;;;;;;;;;2.67;2.67;;;;;19.91;56.98;97553.25;4955439;28;102614;-91
2022/09/14 08:56:11;;;;;;;;;2.00;2.00;;;;;19.91;56.27;97552.41;4971420;28;102806;-91
2022/09/14 08:59:03;;;;;;;;;3.33;2.67;;;;;19.92;56.69;97556.81;4956363;28;103689;-91
2022/09/14 09:01:39;;;;;;;;;2.67;2.67;;;;;19.92;56.68;97554.06;4956302;28;108681;-91
2022/09/14 09:04:41;;;;;;;;;2.00;2.00;;;;;19.92;56.44;97551.31;4950174;28;102336;-91
2022/09/14 09:07:34;;;;;;;;;3.00;3.00;;;;;19.93;56.29;97547.47;4964406;28;102501;-91
2022/09/14 09:10:02;;;;;;;;;2.00;2.00;;;;;19.93;56.42;97539.25;4955141;28;102495;-92
2022/09/14 09:12:39;;;;;;;;;2.67;2.00;;;;;19.93;56.24;97540.06;4949628;28;104265;-92
2022/09/14 09:15:20;;;;;;;;;1.67;1.67;;;;;19.94;56.43;97535.41;4962432;28;102101;-91
2022/09/14 09:17:50;;;;;;;;;2.33;2.33;;;;;19.95;56.30;97537.00;4963405;28;102590;-92
2022/09/14 09:20:23;;;;;;;;;3.00;3.00;;;;;19.96;56.61;97534.00;4953983;28;102240;-92
2022/09/14 09:23:05;;;;;;;;;2.33;1.67;;;;;19.96;56.77;97536.75;4965408;28;104363;-92
2022/09/14 09:25:57;;;;;;;;;3.00;2.67;;;;;19.97;56.42;97538.38;4969065;28;102471;-91
2022/09/14 09:28:26;;;;;;;;;2.33;2.33;;;;;19.98;56.47;97530.97;4960621;28;102680;-91
2022/09/14 09:31:06;;;;;;;;;2.33;2.00;;;;;19.97;56.48;97535.63;4961037;28;102258;-92
2022/09/14 09:33:39;;;;;;;;;1.67;1.67;;;;;19.98;56.30;97541.94;4960341;28;108933;-92
2022/09/14 09:36:07;;;;;;;;;1.67;1.33;;;;;19.96;56.57;97524.94;4969166;28;102359;-91
2022/09/14 09:38:34;;;;;;;;;1.67;1.67;;;;;19.98;56.33;97536.47;4953208;28;102165;-92
2022/09/14 09:41:10;;;;;;;;;2.00;2.00;;;;;19.99;56.57;97529.88;4960961;28;104145;-91
2022/09/14 09:43:57;;;;;;;;;2.33;2.00;;;;;19.99;56.75;97532.63;4961648;28;108836;-92
2022/09/14 09:46:28;;;;;;;;;1.00;0.67;;;;;20.00;56.51;97535.06;4967639;28;102270;-90
2022/09/14 09:48:56;;;;;;;;;2.00;1.67;;;;;19.99;56.39;97529.88;4964108;28;104139;-91
2022/09/14 09:51:22;;;;;;;;;3.33;3.00;;;;;20.00;56.71;97526.81;4977055;28;102430;-91
2022/09/14 09:53:59;;;;;;;;;1.00;1.00;;;;;20.01;56.52;97533.13;4961036;28;104246;-91
2022/09/14 09:56:30;;;;;;;;;1.67;1.67;;;;;20.01;56.13;97533.94;4958565;28;102605;-91
2022/09/14 09:58:57;;;;;;;;;2.33;2.00;;;;;20.02;56.32;97538.34;4961309;28;102579;-92
2022/09/14 10:01:29;;;;;;;;;2.00;2.00;;;;;20.02;56.43;97530.09;4966001;28;102441;-92
2022/09/14 10:04:10;;;;;;;;;1.67;1.67;;;;;20.03;56.28;97528.19;4961638;28;104159;-92
2022/09/14 10:06:48;;;;;;;;;4.33;3.00;;;;;20.05;56.20;97536.94;4966297;28;102064;-91
2022/09/14 10:09:19;;;;;;;;;2.33;2.33;;;;;20.01;56.43;97528.47;4950899;28;102245;-91
2022/09/14 10:11:47;;;;;;;;;2.00;2.00;;;;;20.06;56.32;97530.34;4966522;28;102371;-92
2022/09/14 10:14:34;;;;;;;;;2.67;1.67;;;;;20.05;56.60;97532.28;4965946;28;104031;-91
2022/09/14 10:17:16;;;;;;;;;1.67;1.00;;;;;20.06;56.57;97522.13;4950720;28;104534;-91
2022/09/14 10:19:52;;;;;;;;;2.00;1.67;;;;;20.06;56.21;97527.59;4950475;28;102383;-91
2022/09/14 10:22:28;;;;;;;;;1.67;1.67;;;;;20.07;56.27;97523.75;4964310;28;102350;-92
2022/09/14 10:25:14;;;;;;;;;2.00;2.00;;;;;20.08;56.17;97519.91;4962834;28;104302;-91
2022/09/14 10:27:51;;;;;;;;;1.67;1.67;;;;;20.07;56.50;97517.44;4963419;28;104503;-88
2022/09/14 10:30:23;;;;;;;;;1.67;1.67;;;;;20.08;56.21;97525.41;4952692;28;102502;-91
2022/09/14 10:33:01;;;;;;;;;2.67;2.67;;;;;20.07;56.20;97521.00;4964761;28;102257;-92
2022/09/14 10:35:36;;;;;;;;;1.67;1.67;;;;;20.08;56.28;97519.91;4962993;28;104460;-92
2022/09/14 10:38:27;;;;;;;;;2.67;2.67;;;;;20.09;56.23;97521.53;4941784;28;102222;-92
2022/09/14 10:41:21;;;;;;;;;3.00;2.67;;;;;20.08;56.13;97519.91;4962201;28;102517;-92
2022/09/14 10:44:07;;;;;;;;;3.00;2.33;;;;;20.11;56.60;97521.25;4958534;28;102203;-92
2022/09/14 10:46:49;;;;;;;;;2.33;2.33;;;;;20.11;56.17;97516.59;4962732;28;104053;-91
2022/09/14 10:49:25;;;;;;;;;1.67;1.67;;;;;20.10;56.56;97512.19;4951433;28;102247;-91
2022/09/14 10:52:21;;;;;;;;;2.67;1.67;;;;;20.09;56.65;97510.53;4963862;28;102168;-92
2022/09/14 10:55:24;;;;;;;;;1.67;1.67;;;;;20.11;56.19;97510.28;4963722;28;102532;-91
2022/09/14 10:58:00;;;;;;;;;1.67;1.67;;;;;20.11;56.49;97507.53;4960661;28;109532;-92
2022/09/14 11:00:29;;;;;;;;;2.00;2.00;;;;;20.09;56.25;97516.03;4961788;28;102509;-91
2022/09/14 11:03:02;;;;;;;;;2.67;2.67;;;;;20.12;56.18;97509.16;4943310;28;102396;-92
2022/09/14 11:05:43;;;;;;;;;1.67;1.33;;;;;20.11;56.33;97516.59;4966974;28;102355;-92
2022/09/14 11:08:32;;;;;;;;;1.67;1.67;;;;;20.10;56.34;97509.44;4968688;28;109285;-91
2022/09/14 11:11:47;;;;;;;;;2.00;1.67;;;;;20.12;56.40;97509.16;4949556;28;102211;-92
2022/09/14 11:14:28;;;;;;;;;2.67;1.67;;;;;20.10;56.55;97512.19;4941221;28;103214;-91
2022/09/14 11:17:04;;;;;;;;;1.67;1.67;;;;;20.11;56.10;97497.38;4968383;28;102543;-92
2022/09/14 11:19:50;;;;;;;;;1.67;1.67;;;;;20.12;56.14;97509.16;4955380;28;104178;-92
2022/09/14 11:22:32;;;;;;;;;3.00;3.00;;;;;20.12;56.40;97512.75;4959434;28;102187;-92
2022/09/14 11:25:36;;;;;;;;;2.67;2.67;;;;;20.11;56.27;97497.38;4952669;28;104809;-92
2022/09/14 11:28:06;;;;;;;;;2.67;2.67;;;;;20.12;56.11;97501.75;4950917;28;102408;-92
2022/09/14 11:30:57;;;;;;;;;2.00;2.00;;;;;20.10;56.34;97490.22;4953310;28;104530;-92
2022/09/14 11:33:28;;;;;;;;;1.00;1.00;;;;;20.12;56.36;97492.69;4925483;28;105704;-93
2022/09/14 11:36:03;;;;;;;;;1.67;1.67;;;;;20.10;56.64;97482.00;4952889;28;102409;-92
2022/09/14 11:38:41;;;;;;;;;1.67;1.67;;;;;20.11;56.37;97497.38;4951656;28;102560;-92
2022/09/14 11:41:37;;;;;;;;;1.67;1.33;;;;;20.12;56.21;97496.28;4934998;28;104057;-92
2022/09/14 11:44:06;;;;;;;;;2.00;2.00;;;;;20.12;56.63;97500.94;4947494;28;102486;-92
2022/09/14 11:46:37;;;;;;;;;1.33;1.33;;;;;20.10;56.23;97503.97;4949400;28;102655;-92
2022/09/14 11:49:12;;;;;;;;;2.33;2.33;;;;;20.12;56.32;97503.69;4958903;28;102357;-92